Cold Brook, New York
Current Conditions -  °F | °C
As of 4:53 PM on Tuesday 25 Nov 2014 (Local Time) from KRME Reporting Station
Clear Clear  
Wind Chill: 37°   Ceiling: Unl
Heat Index: 43°   Visibility: 10mi
Dew Point: 28°   Wind: 10mph
Humidity: 56%   Direction: 290°WNW
Pressure: 29.99"   Gusts: NA
Location:  43.24°N, 75.04°W
Report Text: KRME 252153Z 29009KT 10SM CLR 06/M02 A2999 RMK AO2 SLP160 T00611022
Loading
Personal Weather Stations






























Interactive Weather Map New forecast layout! Learn more

10-Day Weather Forecast

Advertisements
Track Severe Weather on mobile